Time;durP1;ratioP1;P1;durP2;ratioP2;P2;SDS_P1;SDS_P2;PMS_P1;PMS_P2;Temp;Humidity;BMP_temperature;BMP_pressure;BME280_temperature;BME280_humidity;BME280_pressure;Samples;Min_cycle;Max_cycle;Signal;HPM_P1;HPM_P2
2023/05/17 00:00:21;;;;;;;3.55;1.70;;;;;;;17.87;53.45;98360.72;4975659;28;20050;-80
2023/05/17 00:02:47;;;;;;;4.50;1.70;;;;;;;17.85;53.38;98361.88;4975568;28;20038;-79
2023/05/17 00:05:12;;;;;;;7.25;1.60;;;;;;;17.82;53.39;98347.25;4926910;28;20102;-79
2023/05/17 00:07:38;;;;;;;5.03;1.73;;;;;;;17.82;53.48;98336.69;4958081;28;20429;-79
2023/05/17 00:10:04;;;;;;;6.75;2.05;;;;;;;17.79;53.71;98330.91;4958645;28;20053;-79
2023/05/17 00:12:29;;;;;;;6.13;1.60;;;;;;;17.81;53.46;98334.22;4958328;28;20062;-79
2023/05/17 00:14:55;;;;;;;4.40;2.05;;;;;;;17.79;53.63;98313.25;4942009;28;20094;-80
2023/05/17 00:17:20;;;;;;;5.15;1.88;;;;;;;17.76;53.83;98291.66;4938584;28;20051;-79
2023/05/17 00:19:46;;;;;;;8.82;2.30;;;;;;;17.77;53.83;98285.38;4954362;28;20096;-79
2023/05/17 00:22:11;;;;;;;7.50;2.35;;;;;;;17.76;54.23;98266.09;4938868;29;20426;-79
2023/05/17 00:24:37;;;;;;;5.78;1.83;;;;;;;17.76;54.18;98268.72;4954735;28;20121;-79
2023/05/17 00:27:02;;;;;;;10.52;2.42;;;;;;;17.74;54.35;98260.16;4954608;29;20422;-79
2023/05/17 00:29:28;;;;;;;6.28;2.13;;;;;;;17.74;54.75;98260.16;4954868;28;20110;-80
2023/05/17 00:31:53;;;;;;;6.95;1.95;;;;;;;17.70;54.92;98261.50;4954979;29;20050;-80
2023/05/17 00:34:19;;;;;;;6.50;2.33;;;;;;;17.70;55.06;98245.66;4954854;29;20479;-80
2023/05/17 00:36:44;;;;;;;5.13;2.10;;;;;;;17.67;55.34;98240.75;4938633;29;20071;-79
2023/05/17 00:39:10;;;;;;;8.77;2.30;;;;;;;17.70;55.35;98225.38;4938619;29;20047;-80
2023/05/17 00:41:35;;;;;;;12.60;2.25;;;;;;;17.71;55.74;98226.19;4938107;29;20094;-80
2023/05/17 00:44:01;;;;;;;5.05;2.03;;;;;;;17.72;55.94;98231.28;4954393;28;20050;-80
2023/05/17 00:46:26;;;;;;;5.63;2.20;;;;;;;17.72;56.30;98227.81;4954560;28;20078;-80
2023/05/17 00:48:52;;;;;;;8.82;2.60;;;;;;;17.73;56.25;98230.28;4938393;29;20073;-80
2023/05/17 00:51:18;;;;;;;10.75;2.45;;;;;;;17.76;56.51;98234.41;4938186;29;20398;-80
2023/05/17 00:53:43;;;;;;;7.78;2.47;;;;;;;17.73;56.87;98234.75;4938179;29;20082;-80
2023/05/17 00:56:09;;;;;;;5.63;2.22;;;;;;;17.72;56.93;98220.72;4938676;29;20066;-80
2023/05/17 00:58:35;;;;;;;7.20;2.38;;;;;;;17.76;57.14;98215.94;4922216;29;20486;-80
2023/05/17 01:01:01;;;;;;;6.88;2.58;;;;;;;17.72;57.21;98204.88;4938091;29;20167;-79
2023/05/17 01:03:26;;;;;;;5.93;2.45;;;;;;;17.79;57.23;98209.47;4937903;29;20047;-80
2023/05/17 01:05:52;;;;;;;7.85;2.50;;;;;;;17.79;57.66;98204.19;4953871;29;20407;-80
2023/05/17 01:08:17;;;;;;;9.30;2.50;;;;;;;17.81;57.74;98210.13;4953998;29;20039;-79
2023/05/17 01:10:54;;;;;;;6.78;2.45;;;;;;;17.80;57.83;98206.66;4937932;29;20039;-80
2023/05/17 01:14:06;;;;;;;15.95;3.25;;;;;;;17.80;58.13;98209.28;4939043;29;20039;-80
2023/05/17 01:16:48;;;;;;;10.40;2.42;;;;;;;17.79;58.07;98205.03;4876381;29;20164;-77
2023/05/17 01:19:37;;;;;;;7.78;2.30;;;;;;;17.83;58.13;98211.56;4861021;29;20084;-77
2023/05/17 01:22:25;;;;;;;6.88;2.63;;;;;;;17.84;58.18;98199.22;4877296;29;20056;-76
2023/05/17 01:25:27;;;;;;;8.40;2.63;;;;;;;17.86;58.37;98205.94;4876585;29;20115;-77
2023/05/17 01:27:53;;;;;;;7.18;2.30;;;;;;;17.84;58.14;98194.75;4840006;29;20042;-76
2023/05/17 01:30:19;;;;;;;8.68;2.40;;;;;;;17.85;58.29;98188.47;4823992;29;20038;-76
2023/05/17 01:32:45;;;;;;;6.38;2.55;;;;;;;17.85;58.29;98190.28;4839432;29;20098;-76
2023/05/17 01:35:13;;;;;;;6.40;2.38;;;;;;;17.84;58.29;98186.84;4839859;29;20114;-76
2023/05/17 01:37:38;;;;;;;8.50;2.65;;;;;;;17.84;58.24;98191.31;4825220;29;20046;-76
2023/05/17 01:40:05;;;;;;;4.22;2.08;;;;;;;17.83;58.34;98189.66;4839822;29;20090;-76
2023/05/17 01:42:31;;;;;;;8.18;2.60;;;;;;;17.81;58.49;98186.38;4839761;29;20046;-77
2023/05/17 01:45:08;;;;;;;7.88;2.13;;;;;;;17.78;58.40;98192.81;4839943;29;20594;-76
2023/05/17 01:47:44;;;;;;;7.97;2.40;;;;;;;17.76;58.45;98189.53;4839884;29;20524;-76
2023/05/17 01:50:11;;;;;;;5.15;2.22;;;;;;;17.77;58.32;98200.91;4824989;29;20383;-76
2023/05/17 01:52:43;;;;;;;7.47;2.15;;;;;;;17.75;58.29;98195.00;4829216;29;20050;-76
2023/05/17 01:55:23;;;;;;;6.35;2.33;;;;;;;17.71;58.30;98205.06;4861970;29;20112;-76
2023/05/17 01:57:50;;;;;;;5.97;2.30;;;;;;;17.71;58.40;98210.34;4862738;29;20048;-76
2023/05/17 02:00:16;;;;;;;7.47;2.47;;;;;;;17.68;58.33;98210.72;4861384;29;20166;-76
2023/05/17 02:02:42;;;;;;;5.05;2.30;;;;;;;17.66;58.29;98210.88;4848017;29;20564;-76
2023/05/17 02:05:07;;;;;;;5.57;2.15;;;;;;;17.63;58.32;98205.13;4937087;29;20097;-76
2023/05/17 02:07:33;;;;;;;5.63;2.20;;;;;;;17.59;58.32;98214.41;4921111;29;20521;-76
2023/05/17 02:09:58;;;;;;;6.55;2.00;;;;;;;17.58;58.33;98226.75;4953062;29;20040;-76
2023/05/17 02:12:24;;;;;;;4.78;2.22;;;;;;;17.54;58.35;98228.94;4937172;29;20039;-77
2023/05/17 02:14:49;;;;;;;5.70;2.30;;;;;;;17.52;58.36;98230.09;4936912;29;20062;-76
2023/05/17 02:17:15;;;;;;;5.32;2.58;;;;;;;17.47;58.57;98228.00;4936370;29;20055;-76
2023/05/17 02:19:40;;;;;;;6.75;2.45;;;;;;;17.48;58.37;98229.63;4952880;29;20035;-76
2023/05/17 02:22:06;;;;;;;10.63;2.38;;;;;;;17.46;58.42;98230.81;4936907;29;20046;-76
2023/05/17 02:24:31;;;;;;;5.88;2.03;;;;;;;17.50;58.61;98242.63;4952733;29;20036;-76
2023/05/17 02:26:57;;;;;;;4.63;2.30;;;;;;;17.44;58.57;98244.19;4954196;28;20043;-76
2023/05/17 02:29:22;;;;;;;5.25;2.38;;;;;;;17.47;58.55;98243.84;4936776;29;20043;-76
2023/05/17 02:31:48;;;;;;;4.90;2.20;;;;;;;17.43;58.45;98247.78;4952858;29;20102;-76
2023/05/17 02:34:13;;;;;;;5.10;2.20;;;;;;;17.43;58.68;98258.34;4937144;29;20054;-76
2023/05/17 02:36:39;;;;;;;4.10;2.10;;;;;;;17.40;58.82;98269.25;4952703;28;20483;-72
2023/05/17 02:39:05;;;;;;;5.95;2.50;;;;;;;17.34;58.76;98259.38;4953981;28;20035;-80
2023/05/17 02:41:31;;;;;;;5.05;2.28;;;;;;;17.34;58.46;98259.38;4922265;29;20070;-81
2023/05/17 02:43:56;;;;;;;7.57;2.63;;;;;;;17.38;58.66;98262.50;4924645;29;20502;-80
2023/05/17 02:46:22;;;;;;;5.95;2.40;;;;;;;17.34;58.38;98262.84;4940306;29;20047;-81
2023/05/17 02:48:47;;;;;;;6.30;2.30;;;;;;;17.33;58.09;98266.47;4956230;28;20035;-81
2023/05/17 02:51:13;;;;;;;7.57;2.88;;;;;;;17.32;57.96;98272.75;4955939;29;20047;-81
2023/05/17 02:53:38;;;;;;;3.50;1.70;;;;;;;17.26;57.78;98269.97;4955933;29;20138;-81
2023/05/17 02:56:04;;;;;;;5.88;2.05;;;;;;;17.27;57.82;98287.47;4956041;29;20031;-80
2023/05/17 02:58:29;;;;;;;6.93;2.30;;;;;;;17.24;57.58;98287.78;4957409;29;20071;-81
2023/05/17 03:00:55;;;;;;;5.38;2.35;;;;;;;17.25;57.41;98295.53;4955703;29;20047;-81
2023/05/17 03:03:20;;;;;;;4.13;2.08;;;;;;;17.24;57.24;98301.78;4924000;29;20387;-81
2023/05/17 03:05:46;;;;;;;3.88;2.08;;;;;;;17.21;57.04;98306.59;4957180;28;20042;-74
2023/05/17 03:08:11;;;;;;;9.32;2.53;;;;;;;17.15;57.15;98308.91;4956985;29;20047;-74
2023/05/17 03:10:37;;;;;;;6.22;2.28;;;;;;;17.13;57.31;98299.53;4939592;29;20071;-75
2023/05/17 03:13:02;;;;;;;5.70;2.28;;;;;;;17.09;57.42;98285.84;4955411;29;20495;-75
2023/05/17 03:15:28;;;;;;;6.07;2.17;;;;;;;17.06;57.45;98278.25;4957453;28;20054;-75
2023/05/17 03:17:56;;;;;;;4.43;2.40;;;;;;;17.10;57.35;98291.97;4943238;28;20548;-72
2023/05/17 03:20:22;;;;;;;11.60;2.30;;;;;;;17.06;57.54;98285.38;4958675;28;20089;-71
2023/05/17 03:22:47;;;;;;;3.90;1.77;;;;;;;17.52;64.45;98291.63;4942626;28;20050;-69
2023/05/17 03:25:13;;;;;;;3.72;1.80;;;;;;;17.95;62.41;98279.84;4942872;28;20115;-69
2023/05/17 03:27:38;;;;;;;3.75;1.80;;;;;;;18.07;61.67;98284.56;4958354;28;20089;-69
2023/05/17 03:30:05;;;;;;;6.63;2.05;;;;;;;18.29;61.81;98292.63;4975943;28;20070;-69
2023/05/17 03:32:30;;;;;;;4.43;1.90;;;;;;;18.50;60.80;98285.88;4941869;28;20481;-72
2023/05/17 03:34:55;;;;;;;5.10;1.70;;;;;;;18.63;59.59;98268.41;4958678;28;20125;-72
2023/05/17 03:37:21;;;;;;;5.88;1.63;;;;;;;18.78;58.81;98267.59;4958665;28;20031;-71
2023/05/17 03:39:46;;;;;;;5.97;2.00;;;;;;;18.90;57.91;98260.06;4942473;28;20490;-70
2023/05/17 03:42:12;;;;;;;9.32;2.17;;;;;;;18.78;56.17;98267.59;4942046;28;20200;-70
2023/05/17 03:44:38;;;;;;;8.27;2.28;;;;;;;18.48;56.01;98258.81;4942310;28;20043;-71
2023/05/17 03:47:05;;;;;;;3.75;2.00;;;;;;;18.30;56.11;98267.06;4925686;28;20101;-68
2023/05/17 03:49:30;;;;;;;7.90;2.13;;;;;;;18.10;56.06;98258.78;4923186;28;20046;-72
2023/05/17 03:51:56;;;;;;;7.47;2.63;;;;;;;18.00;56.42;98254.56;4940454;28;20403;-70
2023/05/17 03:54:21;;;;;;;6.32;2.30;;;;;;;17.93;56.72;98263.38;4957272;28;20418;-71
2023/05/17 03:56:48;;;;;;;4.75;2.47;;;;;;;17.86;56.88;98264.03;4925685;28;20487;-72
2023/05/17 03:59:14;;;;;;;5.15;2.50;;;;;;;17.81;57.03;98276.13;4942068;28;20085;-71
2023/05/17 04:01:40;;;;;;;6.55;2.50;;;;;;;17.79;57.13;98272.81;4958390;28;20106;-73
2023/05/17 04:04:06;;;;;;;5.65;2.10;;;;;;;17.87;58.96;98283.34;4960799;28;20039;-75
2023/05/17 04:06:32;;;;;;;4.97;2.33;;;;;;;17.94;58.73;98280.84;4975424;28;20034;-74
2023/05/17 04:08:58;;;;;;;6.38;2.20;;;;;;;17.96;58.57;98268.28;4975507;28;20042;-72
2023/05/17 04:11:26;;;;;;;4.18;2.25;;;;;;;18.01;58.23;98274.69;4957754;28;20097;-71
2023/05/17 04:13:51;;;;;;;4.63;2.13;;;;;;;18.05;58.40;98277.81;4957290;28;20046;-72
2023/05/17 04:16:17;;;;;;;3.45;1.63;;;;;;;18.12;57.98;98275.28;4941650;28;20490;-75
2023/05/17 04:18:44;;;;;;;5.90;2.10;;;;;;;18.17;57.67;98279.03;4922731;29;20043;-73
2023/05/17 04:21:09;;;;;;;8.23;1.98;;;;;;;18.24;57.55;98276.50;4938526;29;20387;-76
2023/05/17 04:23:35;;;;;;;9.68;1.90;;;;;;;18.50;60.93;98284.06;4938764;29;20035;-74
2023/05/17 04:26:00;;;;;;;10.93;2.30;;;;;;;18.53;59.75;98270.50;4955287;29;20043;-75
2023/05/17 04:28:26;;;;;;;10.00;1.92;;;;;;;18.59;59.23;98293.53;4949413;28;20039;-74
2023/05/17 04:30:51;;;;;;;3.83;1.63;;;;;;;18.69;58.66;98316.25;4956969;28;20043;-75
2023/05/17 04:33:17;;;;;;;5.28;1.88;;;;;;;18.71;58.23;98308.97;4974108;28;20382;-75
2023/05/17 04:35:43;;;;;;;6.43;2.10;;;;;;;18.82;57.85;98324.41;4974112;28;20098;-74
2023/05/17 04:38:08;;;;;;;4.50;2.05;;;;;;;18.88;57.27;98315.78;4974542;28;20046;-75
2023/05/17 04:40:34;;;;;;;6.28;2.83;;;;;;;19.02;57.01;98326.56;4941346;28;20510;-75
2023/05/17 04:43:00;;;;;;;8.80;2.42;;;;;;;19.07;56.49;98319.72;4957307;28;20077;-74
2023/05/17 04:45:25;;;;;;;5.18;2.42;;;;;;;19.19;56.04;98333.31;4974405;28;20469;-74
2023/05/17 04:47:52;;;;;;;7.57;2.58;;;;;;;19.19;55.97;98335.13;4957331;28;20043;-80
2023/05/17 04:50:17;;;;;;;7.40;2.30;;;;;;;19.21;55.75;98346.34;4941585;28;20469;-76
2023/05/17 04:52:43;;;;;;;3.78;2.00;;;;;;;19.23;55.43;98353.13;4957227;28;20035;-80
2023/05/17 04:55:09;;;;;;;4.38;2.00;;;;;;;19.19;55.32;98354.47;4940652;28;20035;-80
2023/05/17 04:57:34;;;;;;;4.03;2.15;;;;;;;19.20;55.25;98355.28;4938883;28;20452;-81
2023/05/17 05:00:04;;;;;;;7.47;2.20;;;;;;;19.21;55.03;98356.94;4954905;28;20046;-80
2023/05/17 05:02:29;;;;;;;3.85;2.20;;;;;;;19.20;54.99;98363.22;4958104;28;20066;-79
2023/05/17 05:04:55;;;;;;;5.47;2.30;;;;;;;19.19;54.84;98359.75;4925120;28;20545;-80
2023/05/17 05:07:20;;;;;;;6.60;2.08;;;;;;;19.20;54.86;98366.72;4956838;28;20446;-80
2023/05/17 05:09:46;;;;;;;6.35;2.00;;;;;;;19.15;54.59;98358.50;4940967;28;20066;-81
2023/05/17 05:12:11;;;;;;;5.63;2.28;;;;;;;19.20;54.50;98357.94;4924345;28;20074;-79
2023/05/17 05:14:37;;;;;;;5.50;2.00;;;;;;;19.18;54.52;98350.16;4957837;28;20043;-79
2023/05/17 05:17:02;;;;;;;5.60;2.15;;;;;;;19.17;54.31;98349.38;4938532;29;20517;-84
2023/05/17 05:19:28;;;;;;;7.68;2.15;;;;;;;19.21;54.50;98341.88;4923254;29;20066;-85
2023/05/17 05:21:53;;;;;;;8.15;2.20;;;;;;;19.21;54.39;98327.84;4938165;29;20050;-80
2023/05/17 05:24:19;;;;;;;4.25;2.28;;;;;;;19.21;54.44;98327.84;4922585;29;20502;-80
2023/05/17 05:26:45;;;;;;;5.72;2.10;;;;;;;19.23;54.43;98328.47;4937975;29;20487;-81
2023/05/17 05:29:10;;;;;;;4.22;2.00;;;;;;;19.23;54.39;98324.00;4938108;29;20043;-81
2023/05/17 05:31:36;;;;;;;7.53;2.00;;;;;;;19.24;54.43;98323.00;4922187;29;20490;-80
2023/05/17 05:34:02;;;;;;;6.07;2.50;;;;;;;19.25;54.42;98319.34;4922208;29;20077;-80
2023/05/17 05:36:27;;;;;;;6.90;2.33;;;;;;;19.26;54.18;98321.00;4938626;29;20078;-83
2023/05/17 05:38:53;;;;;;;6.10;2.42;;;;;;;19.24;54.40;98312.41;4922245;29;20464;-80
2023/05/17 05:41:19;;;;;;;8.00;2.20;;;;;;;19.23;54.31;98316.06;4922932;29;20043;-81
2023/05/17 05:43:44;;;;;;;4.47;2.53;;;;;;;19.27;54.33;98316.53;4937853;29;20039;-79
2023/05/17 05:46:10;;;;;;;6.68;2.28;;;;;;;19.28;54.30;98318.16;4922081;29;20531;-79
2023/05/17 05:48:38;;;;;;;4.10;2.30;;;;;;;19.30;54.31;98316.97;4922612;29;20050;-79
2023/05/17 05:51:03;;;;;;;5.68;2.47;;;;;;;19.28;54.15;98313.69;4923713;29;20050;-82
2023/05/17 05:53:29;;;;;;;5.25;2.15;;;;;;;19.33;54.22;98318.44;4938030;29;20400;-80
2023/05/17 05:55:55;;;;;;;8.98;2.40;;;;;;;19.36;54.29;98333.13;4938443;29;20047;-80
2023/05/17 05:58:20;;;;;;;5.53;2.30;;;;;;;19.36;54.19;98328.66;4922631;29;20039;-80
2023/05/17 06:00:46;;;;;;;7.00;2.50;;;;;;;19.37;54.24;98329.47;4937192;29;20078;-81
2023/05/17 06:03:12;;;;;;;5.45;2.08;;;;;;;19.39;53.96;98330.94;4921908;29;20079;-80
2023/05/17 06:05:39;;;;;;;5.88;2.40;;;;;;;19.44;53.81;98328.56;4922426;29;20098;-78
2023/05/17 06:08:05;;;;;;;6.90;2.13;;;;;;;19.48;53.96;98329.00;4922260;29;20035;-83
2023/05/17 06:10:31;;;;;;;5.13;2.45;;;;;;;19.51;53.68;98336.56;4922500;29;20158;-81
2023/05/17 06:12:56;;;;;;;9.43;2.35;;;;;;;19.57;53.56;98338.50;4922428;29;20490;-81
2023/05/17 06:15:22;;;;;;;7.70;2.53;;;;;;;19.57;53.61;98335.03;4953662;28;20059;-81
2023/05/17 06:17:47;;;;;;;7.00;2.40;;;;;;;19.61;53.33;98331.00;4925294;29;20487;-81
2023/05/17 06:20:14;;;;;;;4.68;2.40;;;;;;;19.68;53.28;98345.13;4926610;29;20122;-79
2023/05/17 06:22:39;;;;;;;9.20;2.72;;;;;;;19.69;53.09;98344.97;4941767;29;20046;-80
2023/05/17 06:25:05;;;;;;;8.98;2.33;;;;;;;19.75;52.98;98345.22;4958493;29;20067;-81
2023/05/17 06:27:32;;;;;;;5.60;2.40;;;;;;;19.75;52.70;98350.50;4941303;29;20075;-81
2023/05/17 06:29:58;;;;;;;4.85;2.63;;;;;;;19.79;52.81;98349.19;4942237;29;20549;-81
2023/05/17 06:32:23;;;;;;;5.57;2.40;;;;;;;19.82;52.73;98356.75;4956840;29;20070;-80
2023/05/17 06:34:49;;;;;;;8.50;2.58;;;;;;;19.82;52.53;98360.22;4942125;29;20470;-83
2023/05/17 06:37:15;;;;;;;7.35;2.50;;;;;;;19.86;52.45;98368.59;4926089;29;20479;-80
2023/05/17 06:39:40;;;;;;;7.00;2.70;;;;;;;19.88;52.46;98379.84;4926034;29;20035;-81
2023/05/17 06:42:06;;;;;;;6.60;2.58;;;;;;;19.88;52.21;98370.06;4941786;29;20039;-81
2023/05/17 06:44:31;;;;;;;9.30;2.60;;;;;;;19.96;52.09;98379.72;4941917;29;20044;-81
2023/05/17 06:46:57;;;;;;;5.45;2.38;;;;;;;20.03;52.05;98366.56;4927384;29;20039;-82
2023/05/17 06:49:23;;;;;;;6.72;2.83;;;;;;;20.08;51.75;98353.56;4926378;29;20047;-80
2023/05/17 06:51:48;;;;;;;7.35;3.00;;;;;;;20.14;51.59;98347.50;4957809;29;20039;-80
2023/05/17 06:54:14;;;;;;;8.45;2.70;;;;;;;20.20;51.48;98340.66;4941545;29;20117;-80
2023/05/17 06:56:39;;;;;;;7.07;2.25;;;;;;;20.34;51.31;98355.69;4924956;29;20546;-81
2023/05/17 06:59:05;;;;;;;6.60;2.63;;;;;;;20.40;51.35;98359.41;4925372;29;20075;-81
2023/05/17 07:01:30;;;;;;;14.13;3.10;;;;;;;20.50;51.04;98367.84;4941555;29;20475;-82
2023/05/17 07:03:56;;;;;;;8.23;2.67;;;;;;;20.58;50.99;98373.03;4942507;29;20071;-79
2023/05/17 07:06:21;;;;;;;8.90;3.42;;;;;;;20.64;50.61;98368.84;4959489;29;20027;-80
2023/05/17 07:08:47;;;;;;;11.00;3.25;;;;;;;20.71;50.45;98355.63;4957500;29;20039;-81
2023/05/17 07:11:12;;;;;;;10.52;3.35;;;;;;;20.80;50.35;98367.75;4941045;29;20083;-80
2023/05/17 07:13:38;;;;;;;7.00;3.03;;;;;;;20.86;49.94;98363.47;4957538;29;20035;-82
2023/05/17 07:16:06;;;;;;;8.07;3.35;;;;;;;20.93;49.83;98353.75;4925200;29;20066;-82
2023/05/17 07:18:31;;;;;;;;;;;;;;;21.04;49.62;98353.22;4925357;29;20073;-80
2023/05/17 07:20:57;;;;;;;7.07;2.60;;;;;;;21.03;49.63;98351.59;4956554;29;19910;-81
2023/05/17 07:23:22;;;;;;;8.60;3.20;;;;;;;21.11;49.64;98353.25;4925009;29;20122;-80
2023/05/17 07:25:48;;;;;;;6.68;3.33;;;;;;;21.17;49.21;98355.13;4941742;29;20582;-81
2023/05/17 07:28:14;;;;;;;13.38;3.05;;;;;;;21.30;48.91;98362.34;4941731;29;20475;-83
2023/05/17 07:30:39;;;;;;;8.20;3.10;;;;;;;21.34;48.97;98347.69;4940952;29;20043;-81
2023/05/17 07:33:05;;;;;;;9.45;3.17;;;;;;;21.44;48.66;98357.94;4941281;29;20046;-82
2023/05/17 07:35:31;;;;;;;10.15;3.45;;;;;;;21.49;48.46;98359.03;4941125;29;20110;-83
2023/05/17 07:37:57;;;;;;;11.68;3.03;;;;;;;21.51;48.50;98340.25;4959367;29;20527;-82
2023/05/17 07:40:23;;;;;;;8.85;3.33;;;;;;;21.60;48.31;98351.50;4925267;29;20086;-83
2023/05/17 07:42:49;;;;;;;9.40;3.45;;;;;;;21.65;47.96;98349.91;4924412;29;20039;-82
2023/05/17 07:45:14;;;;;;;6.88;2.53;;;;;;;21.69;48.03;98348.47;4925481;29;20046;-81
2023/05/17 07:47:40;;;;;;;6.32;3.00;;;;;;;21.67;47.84;98347.88;4927883;29;20035;-81
2023/05/17 07:50:06;;;;;;;8.90;2.90;;;;;;;21.77;47.88;98354.66;4940579;29;20043;-79
2023/05/17 07:52:31;;;;;;;9.43;3.22;;;;;;;21.74;47.91;98350.53;4940618;29;20039;-82
2023/05/17 07:54:58;;;;;;;10.70;3.00;;;;;;;21.76;47.78;98353.00;4924733;29;20039;-83
2023/05/17 07:57:24;;;;;;;10.05;3.10;;;;;;;21.76;47.60;98350.34;4924856;29;20116;-81
2023/05/17 07:59:49;;;;;;;7.93;2.90;;;;;;;21.81;47.53;98347.94;4941301;29;20070;-81
2023/05/17 08:02:15;;;;;;;8.25;3.00;;;;;;;21.80;47.60;98348.94;4925333;29;20042;-82
2023/05/17 08:04:40;;;;;;;7.63;2.92;;;;;;;21.75;47.65;98341.56;4926155;29;20101;-81
2023/05/17 08:07:06;;;;;;;7.68;3.28;;;;;;;21.77;47.92;98338.72;4925207;29;20039;-81
2023/05/17 08:09:32;;;;;;;7.40;3.45;;;;;;;21.78;47.92;98338.50;4943546;29;20035;-84
2023/05/17 08:11:57;;;;;;;5.80;2.78;;;;;;;21.77;47.72;98342.19;4925123;29;20437;-82
2023/05/17 08:14:23;;;;;;;8.80;3.28;;;;;;;21.81;48.08;98338.13;4924797;29;20110;-82
2023/05/17 08:16:50;;;;;;;11.05;3.22;;;;;;;21.76;47.98;98345.03;4940197;29;20052;-83
2023/05/17 08:19:16;;;;;;;8.18;3.40;;;;;;;21.70;48.13;98349.31;4925236;29;20110;-81
2023/05/17 08:21:42;;;;;;;9.93;3.60;;;;;;;21.66;48.42;98345.41;4940406;29;20415;-80
2023/05/17 08:24:08;;;;;;;6.03;3.03;;;;;;;21.63;48.29;98351.13;4940708;29;20062;-79
2023/05/17 08:26:33;;;;;;;10.13;3.03;;;;;;;21.57;48.41;98354.56;4939778;29;20047;-81
2023/05/17 08:29:01;;;;;;;9.13;2.92;;;;;;;21.52;48.50;98352.50;4955891;29;20055;-79
2023/05/17 08:31:27;;;;;;;6.82;3.20;;;;;;;21.49;48.86;98352.88;4924597;29;20050;-81
2023/05/17 08:33:52;;;;;;;10.57;3.10;;;;;;;21.45;48.89;98349.78;4924114;29;20126;-81
2023/05/17 08:36:18;;;;;;;8.18;3.67;;;;;;;21.46;48.97;98351.44;4923790;29;20130;-82
2023/05/17 08:38:43;;;;;;;8.85;3.20;;;;;;;21.46;49.23;98354.09;4922989;29;20082;-81
2023/05/17 08:41:09;;;;;;;10.05;3.25;;;;;;;21.45;48.96;98355.09;4939926;29;20035;-81
2023/05/17 08:43:34;;;;;;;8.60;3.28;;;;;;;21.52;49.09;98351.69;4924025;29;20102;-80
2023/05/17 08:46:02;;;;;;;8.73;3.55;;;;;;;21.56;48.97;98364.38;4924787;29;20050;-80
2023/05/17 08:48:29;;;;;;;9.70;3.22;;;;;;;21.57;49.04;98367.84;4925971;29;20498;-80
2023/05/17 08:50:55;;;;;;;9.38;3.42;;;;;;;21.52;48.96;98371.06;4925390;29;20106;-80
2023/05/17 08:53:21;;;;;;;12.45;3.60;;;;;;;21.43;49.47;98364.28;4939450;29;20043;-80
2023/05/17 08:55:49;;;;;;;10.35;3.47;;;;;;;21.39;49.63;98377.09;4923882;29;20124;-78
2023/05/17 08:58:24;;;;;;;10.30;3.30;;;;;;;21.33;49.95;98381.38;4940569;29;20135;-79
2023/05/17 09:00:50;;;;;;;9.23;3.33;;;;;;;21.27;50.00;98362.75;4923789;29;20392;-83
2023/05/17 09:03:17;;;;;;;10.45;3.10;;;;;;;21.18;50.08;98370.03;4923349;29;20130;-83
2023/05/17 09:05:44;;;;;;;7.95;2.80;;;;;;;21.15;50.48;98357.97;4944642;29;20467;-82
2023/05/17 09:08:13;;;;;;;8.90;3.47;;;;;;;21.09;50.55;98360.59;4940825;29;20039;-82
2023/05/17 09:10:41;;;;;;;8.77;3.33;;;;;;;21.02;51.03;98367.72;4940729;29;20074;-80
2023/05/17 09:13:09;;;;;;;8.77;2.92;;;;;;;20.96;51.11;98362.13;4922880;29;20091;-79
2023/05/17 09:15:36;;;;;;;8.32;2.95;;;;;;;20.87;51.59;98373.91;4924225;28;20121;-79
2023/05/17 09:18:02;;;;;;;8.57;2.88;;;;;;;20.77;51.46;98366.28;4942393;28;20118;-81
2023/05/17 09:20:35;;;;;;;7.45;3.08;;;;;;;20.66;51.73;98369.44;4941621;28;20133;-79
2023/05/17 09:23:03;;;;;;;8.40;3.17;;;;;;;20.57;52.53;98370.56;4942737;28;20038;-79
2023/05/17 09:25:29;;;;;;;;;;;;;;;20.54;52.41;98368.28;4926492;28;20039;-83
2023/05/17 09:27:56;;;;;;;9.07;3.25;;;;;;;20.43;52.73;98373.09;4941817;28;20017;-79
2023/05/17 09:30:32;;;;;;;8.82;3.42;;;;;;;20.33;52.95;98367.28;4926518;28;20034;-79
2023/05/17 09:32:57;;;;;;;11.43;3.72;;;;;;;20.31;53.27;98374.59;4942175;28;20086;-80
2023/05/17 09:35:28;;;;;;;8.25;3.50;;;;;;;20.25;53.29;98372.69;4941981;28;20035;-81
2023/05/17 09:37:54;;;;;;;9.02;3.55;;;;;;;20.18;53.64;98369.19;4927411;28;20565;-81
2023/05/17 09:40:24;;;;;;;11.13;3.40;;;;;;;20.17;53.81;98370.19;4926799;28;20122;-80
2023/05/17 09:42:50;;;;;;;7.10;3.28;;;;;;;20.10;53.86;98363.97;4942240;28;20125;-80
2023/05/17 09:45:21;;;;;;;8.75;3.53;;;;;;;20.11;53.85;98362.97;4943052;28;20414;-80
2023/05/17 09:47:47;;;;;;;7.97;3.30;;;;;;;20.08;54.13;98358.88;4942077;28;20042;-80
2023/05/17 09:50:17;;;;;;;12.57;3.70;;;;;;;20.06;54.26;98356.41;4941377;28;20045;-80
2023/05/17 09:52:42;;;;;;;11.30;4.00;;;;;;;20.05;54.33;98359.22;4926111;28;20038;-79
2023/05/17 09:55:08;;;;;;;9.25;3.63;;;;;;;20.03;54.49;98353.31;4957684;28;20037;-79
2023/05/17 09:57:38;;;;;;;10.30;3.85;;;;;;;19.98;54.51;98343.28;4941507;28;20030;-79
2023/05/17 10:00:13;;;;;;;8.75;3.60;;;;;;;19.99;54.36;98347.56;4926983;28;20133;-83
2023/05/17 10:02:41;;;;;;;11.32;3.63;;;;;;;19.98;54.80;98348.56;4928515;28;20038;-80
2023/05/17 10:05:11;;;;;;;8.10;3.22;;;;;;;19.97;54.54;98344.31;4942774;28;20042;-83
2023/05/17 10:07:37;;;;;;;8.45;3.95;;;;;;;19.95;54.91;98345.47;4926034;28;20038;-79
2023/05/17 10:10:03;;;;;;;8.90;3.65;;;;;;;19.89;54.84;98339.09;4941857;28;20039;-80
2023/05/17 10:12:29;;;;;;;9.05;3.47;;;;;;;19.90;54.90;98337.28;4942160;28;20509;-79
2023/05/17 10:14:55;;;;;;;10.02;3.60;;;;;;;19.86;54.98;98329.72;4925029;28;20038;-80
2023/05/17 10:17:20;;;;;;;12.02;4.43;;;;;;;19.87;55.11;98333.16;4926686;28;20051;-80
2023/05/17 10:19:47;;;;;;;12.13;4.00;;;;;;;19.82;55.02;98330.28;4941618;28;20035;-80
2023/05/17 10:22:13;;;;;;;6.43;3.50;;;;;;;19.76;55.23;98328.34;4957844;28;20046;-81
2023/05/17 10:24:40;;;;;;;11.27;3.80;;;;;;;19.74;55.47;98327.69;4925704;28;20525;-79
2023/05/17 10:27:08;;;;;;;10.82;4.47;;;;;;;19.73;55.54;98334.81;4941773;28;20046;-81
2023/05/17 10:29:33;;;;;;;;;;;;;;;19.71;55.44;98332.34;4942852;28;20501;-79
2023/05/17 10:32:02;;;;;;;10.98;4.03;;;;;;;19.61;55.67;98326.53;4956156;28;19953;-79
2023/05/17 10:34:27;;;;;;;;;;;;;;;19.61;55.89;98334.47;4925539;28;20561;-79
2023/05/17 10:36:53;;;;;;;12.65;3.80;;;;;;;19.52;56.20;98328.44;4940779;28;20024;-80
2023/05/17 10:39:20;;;;;;;9.98;3.70;;;;;;;19.44;56.43;98330.38;4940272;28;20045;-78
2023/05/17 10:41:47;;;;;;;13.43;4.40;;;;;;;19.37;56.72;98327.66;4925108;28;20486;-79
2023/05/17 10:44:13;;;;;;;10.88;3.90;;;;;;;19.31;56.88;98326.56;4924583;28;20529;-80
2023/05/17 10:46:39;;;;;;;12.02;4.20;;;;;;;19.26;57.16;98333.41;4925020;28;20039;-82
2023/05/17 10:49:04;;;;;;;10.85;3.97;;;;;;;19.22;57.30;98334.78;4940999;28;20053;-80
2023/05/17 10:51:35;;;;;;;12.95;4.25;;;;;;;19.17;57.24;98333.50;4942188;28;20035;-83
2023/05/17 10:54:10;;;;;;;9.73;3.70;;;;;;;19.15;57.57;98332.03;4943342;28;20042;-79
2023/05/17 10:56:46;;;;;;;9.73;4.32;;;;;;;19.11;57.62;98331.56;4956226;28;20047;-79
2023/05/17 10:59:16;;;;;;;10.45;4.22;;;;;;;19.13;57.68;98331.38;4956447;28;20050;-78
2023/05/17 11:02:08;;;;;;;11.48;4.10;;;;;;;19.11;57.79;98325.47;4940478;28;20097;-78
2023/05/17 11:04:40;;;;;;;7.78;3.90;;;;;;;19.10;57.91;98326.47;4956990;28;20050;-82
2023/05/17 11:09:44;;;;;;;15.63;4.40;;;;;;;19.08;58.17;98328.47;4977489;28;20069;-82
2023/05/17 11:12:10;;;;;;;12.32;4.40;;;;;;;19.03;58.29;98321.06;4945039;28;20046;-85
2023/05/17 11:14:45;;;;;;;11.38;4.80;;;;;;;19.06;58.33;98331.28;4928077;28;20030;-82
2023/05/17 11:17:14;;;;;;;12.48;3.95;;;;;;;19.07;58.45;98324.16;4960100;28;20058;-80
2023/05/17 11:20:03;;;;;;;10.20;4.22;;;;;;;19.09;58.47;98336.22;4943816;28;20035;-80
2023/05/17 11:22:35;;;;;;;15.13;4.05;;;;;;;19.09;58.44;98332.78;4959782;28;20054;-79
2023/05/17 11:25:01;;;;;;;9.98;4.07;;;;;;;19.12;58.62;98333.22;4944583;28;20546;-80
2023/05/17 11:27:27;;;;;;;9.70;3.72;;;;;;;19.14;58.42;98331.19;4928946;28;20074;-80
2023/05/17 11:29:59;;;;;;;9.00;3.65;;;;;;;19.17;58.27;98328.19;4943408;28;20046;-81
2023/05/17 11:32:27;;;;;;;10.23;4.30;;;;;;;19.13;58.50;98319.00;4943377;28;20049;-80